sensor_id;sensor_type;location;lat;lon;timestamp;P1;durP1;ratioP1;P2;durP2;ratioP2
81801;SDS011;71199;52.490;5.448;2023-07-16T00:01:39;14.00;;;3.00;;
81801;SDS011;71199;52.490;5.448;2023-07-16T00:04:05;12.80;;;2.50;;
81801;SDS011;71199;52.490;5.448;2023-07-16T00:06:30;8.73;;;3.10;;
81801;SDS011;71199;52.490;5.448;2023-07-16T00:08:55;10.73;;;2.40;;
81801;SDS011;71199;52.490;5.448;2023-07-16T00:11:21;7.97;;;2.63;;
81801;SDS011;71199;52.490;5.448;2023-07-16T00:13:46;8.40;;;2.57;;
81801;SDS011;71199;52.490;5.448;2023-07-16T00:16:13;6.40;;;2.63;;
81801;SDS011;71199;52.490;5.448;2023-07-16T00:18:38;8.02;;;3.03;;
81801;SDS011;71199;52.490;5.448;2023-07-16T00:21:04;11.00;;;3.47;;
81801;SDS011;71199;52.490;5.448;2023-07-16T00:23:29;9.35;;;2.30;;
81801;SDS011;71199;52.490;5.448;2023-07-16T00:25:55;10.50;;;2.53;;
81801;SDS011;71199;52.490;5.448;2023-07-16T00:28:20;9.00;;;2.53;;
81801;SDS011;71199;52.490;5.448;2023-07-16T00:30:45;11.18;;;2.55;;
81801;SDS011;71199;52.490;5.448;2023-07-16T00:33:11;10.23;;;2.37;;
81801;SDS011;71199;52.490;5.448;2023-07-16T00:35:36;8.80;;;2.47;;
81801;SDS011;71199;52.490;5.448;2023-07-16T00:38:01;9.43;;;2.40;;
81801;SDS011;71199;52.490;5.448;2023-07-16T00:40:27;7.45;;;2.35;;
81801;SDS011;71199;52.490;5.448;2023-07-16T00:42:52;8.73;;;2.90;;
81801;SDS011;71199;52.490;5.448;2023-07-16T00:45:18;9.10;;;2.90;;
81801;SDS011;71199;52.490;5.448;2023-07-16T00:47:43;14.60;;;2.67;;
81801;SDS011;71199;52.490;5.448;2023-07-16T00:50:10;11.20;;;2.53;;
81801;SDS011;71199;52.490;5.448;2023-07-16T00:52:36;8.23;;;2.65;;
81801;SDS011;71199;52.490;5.448;2023-07-16T00:55:02;12.57;;;3.28;;
81801;SDS011;71199;52.490;5.448;2023-07-16T00:57:28;7.55;;;2.67;;
81801;SDS011;71199;52.490;5.448;2023-07-16T00:59:54;8.73;;;2.88;;
81801;SDS011;71199;52.490;5.448;2023-07-16T01:02:20;11.00;;;3.13;;
81801;SDS011;71199;52.490;5.448;2023-07-16T01:04:45;12.30;;;3.25;;
81801;SDS011;71199;52.490;5.448;2023-07-16T01:07:11;5.57;;;2.50;;
81801;SDS011;71199;52.490;5.448;2023-07-16T01:09:41;8.45;;;3.08;;
81801;SDS011;71199;52.490;5.448;2023-07-16T01:12:08;12.75;;;3.28;;
81801;SDS011;71199;52.490;5.448;2023-07-16T01:17:06;7.90;;;2.63;;
81801;SDS011;71199;52.490;5.448;2023-07-16T01:19:32;9.27;;;3.17;;
81801;SDS011;71199;52.490;5.448;2023-07-16T01:30:23;7.95;;;3.00;;
81801;SDS011;71199;52.490;5.448;2023-07-16T01:32:50;9.15;;;3.17;;
81801;SDS011;71199;52.490;5.448;2023-07-16T01:35:15;17.52;;;3.63;;
81801;SDS011;71199;52.490;5.448;2023-07-16T01:37:42;9.98;;;3.35;;
81801;SDS011;71199;52.490;5.448;2023-07-16T01:40:07;12.23;;;3.95;;
81801;SDS011;71199;52.490;5.448;2023-07-16T01:42:36;10.70;;;3.70;;
81801;SDS011;71199;52.490;5.448;2023-07-16T01:45:02;9.57;;;3.88;;
81801;SDS011;71199;52.490;5.448;2023-07-16T01:49:53;11.70;;;3.37;;
81801;SDS011;71199;52.490;5.448;2023-07-16T01:52:18;9.98;;;3.45;;
81801;SDS011;71199;52.490;5.448;2023-07-16T01:54:44;7.63;;;3.17;;
81801;SDS011;71199;52.490;5.448;2023-07-16T01:57:09;9.48;;;4.07;;
81801;SDS011;71199;52.490;5.448;2023-07-16T01:59:35;10.53;;;3.53;;
81801;SDS011;71199;52.490;5.448;2023-07-16T02:02:00;9.93;;;3.38;;
81801;SDS011;71199;52.490;5.448;2023-07-16T02:04:25;14.63;;;4.03;;
81801;SDS011;71199;52.490;5.448;2023-07-16T02:06:51;12.17;;;3.40;;
81801;SDS011;71199;52.490;5.448;2023-07-16T02:09:16;13.03;;;4.07;;
81801;SDS011;71199;52.490;5.448;2023-07-16T02:11:41;9.70;;;3.37;;
81801;SDS011;71199;52.490;5.448;2023-07-16T02:14:07;10.77;;;2.90;;
81801;SDS011;71199;52.490;5.448;2023-07-16T02:16:33;9.65;;;3.92;;
81801;SDS011;71199;52.490;5.448;2023-07-16T02:18:58;8.47;;;3.60;;
81801;SDS011;71199;52.490;5.448;2023-07-16T02:21:23;14.15;;;3.97;;
81801;SDS011;71199;52.490;5.448;2023-07-16T02:23:49;11.73;;;4.10;;
81801;SDS011;71199;52.490;5.448;2023-07-16T02:26:14;10.07;;;4.00;;
81801;SDS011;71199;52.490;5.448;2023-07-16T02:28:39;10.85;;;3.78;;
81801;SDS011;71199;52.490;5.448;2023-07-16T02:31:05;11.07;;;4.53;;
81801;SDS011;71199;52.490;5.448;2023-07-16T02:33:30;14.30;;;4.23;;
81801;SDS011;71199;52.490;5.448;2023-07-16T02:35:55;17.27;;;4.73;;
81801;SDS011;71199;52.490;5.448;2023-07-16T02:38:21;11.00;;;4.70;;
81801;SDS011;71199;52.490;5.448;2023-07-16T02:40:47;12.98;;;4.00;;
81801;SDS011;71199;52.490;5.448;2023-07-16T02:43:13;15.55;;;4.13;;
81801;SDS011;71199;52.490;5.448;2023-07-16T02:45:39;17.40;;;4.88;;
81801;SDS011;71199;52.490;5.448;2023-07-16T02:48:05;12.77;;;4.15;;
81801;SDS011;71199;52.490;5.448;2023-07-16T02:50:35;10.38;;;3.95;;
81801;SDS011;71199;52.490;5.448;2023-07-16T02:53:04;10.90;;;4.82;;
81801;SDS011;71199;52.490;5.448;2023-07-16T02:55:30;13.13;;;4.20;;
81801;SDS011;71199;52.490;5.448;2023-07-16T02:57:56;12.65;;;4.88;;
81801;SDS011;71199;52.490;5.448;2023-07-16T03:00:21;15.35;;;4.78;;
81801;SDS011;71199;52.490;5.448;2023-07-16T03:02:47;10.60;;;4.72;;
81801;SDS011;71199;52.490;5.448;2023-07-16T03:05:14;8.82;;;3.90;;
81801;SDS011;71199;52.490;5.448;2023-07-16T03:07:39;10.65;;;4.43;;
81801;SDS011;71199;52.490;5.448;2023-07-16T03:10:04;16.93;;;5.23;;
81801;SDS011;71199;52.490;5.448;2023-07-16T03:12:30;11.27;;;3.97;;
81801;SDS011;71199;52.490;5.448;2023-07-16T03:14:55;15.00;;;5.80;;
81801;SDS011;71199;52.490;5.448;2023-07-16T03:17:21;14.00;;;5.27;;
81801;SDS011;71199;52.490;5.448;2023-07-16T03:19:47;13.80;;;4.40;;
81801;SDS011;71199;52.490;5.448;2023-07-16T03:22:13;12.93;;;5.05;;
81801;SDS011;71199;52.490;5.448;2023-07-16T03:24:38;11.35;;;5.13;;
81801;SDS011;71199;52.490;5.448;2023-07-16T03:27:04;12.67;;;4.83;;
81801;SDS011;71199;52.490;5.448;2023-07-16T03:29:29;15.10;;;6.80;;
81801;SDS011;71199;52.490;5.448;2023-07-16T03:31:55;12.40;;;4.78;;
81801;SDS011;71199;52.490;5.448;2023-07-16T03:34:20;19.27;;;6.47;;
81801;SDS011;71199;52.490;5.448;2023-07-16T03:36:46;17.05;;;5.03;;
81801;SDS011;71199;52.490;5.448;2023-07-16T03:39:12;12.35;;;4.68;;
81801;SDS011;71199;52.490;5.448;2023-07-16T03:41:37;14.82;;;4.97;;
81801;SDS011;71199;52.490;5.448;2023-07-16T03:44:02;14.30;;;4.73;;
81801;SDS011;71199;52.490;5.448;2023-07-16T03:46:28;19.90;;;4.60;;
81801;SDS011;71199;52.490;5.448;2023-07-16T03:48:53;14.30;;;4.50;;
81801;SDS011;71199;52.490;5.448;2023-07-16T03:51:19;8.73;;;3.88;;
81801;SDS011;71199;52.490;5.448;2023-07-16T03:53:44;13.18;;;5.40;;
81801;SDS011;71199;52.490;5.448;2023-07-16T03:56:10;11.27;;;4.27;;
81801;SDS011;71199;52.490;5.448;2023-07-16T03:58:35;12.50;;;4.30;;
81801;SDS011;71199;52.490;5.448;2023-07-16T04:01:00;9.25;;;4.60;;
81801;SDS011;71199;52.490;5.448;2023-07-16T04:03:26;15.37;;;4.27;;
81801;SDS011;71199;52.490;5.448;2023-07-16T04:05:51;9.77;;;4.63;;
81801;SDS011;71199;52.490;5.448;2023-07-16T04:08:16;18.00;;;4.40;;
81801;SDS011;71199;52.490;5.448;2023-07-16T04:10:42;10.82;;;4.95;;
81801;SDS011;71199;52.490;5.448;2023-07-16T04:13:07;15.73;;;5.27;;
81801;SDS011;71199;52.490;5.448;2023-07-16T04:15:32;11.73;;;4.27;;
81801;SDS011;71199;52.490;5.448;2023-07-16T04:17:58;9.47;;;4.13;;
81801;SDS011;71199;52.490;5.448;2023-07-16T04:20:23;21.17;;;4.32;;
81801;SDS011;71199;52.490;5.448;2023-07-16T04:22:49;8.27;;;4.10;;
81801;SDS011;71199;52.490;5.448;2023-07-16T04:25:15;12.93;;;4.30;;
81801;SDS011;71199;52.490;5.448;2023-07-16T04:27:41;7.82;;;3.67;;
81801;SDS011;71199;52.490;5.448;2023-07-16T04:30:07;10.23;;;3.58;;
81801;SDS011;71199;52.490;5.448;2023-07-16T04:32:33;7.95;;;3.70;;
81801;SDS011;71199;52.490;5.448;2023-07-16T04:34:58;12.27;;;4.63;;
81801;SDS011;71199;52.490;5.448;2023-07-16T04:37:24;15.20;;;3.97;;
81801;SDS011;71199;52.490;5.448;2023-07-16T04:39:49;12.98;;;4.00;;
81801;SDS011;71199;52.490;5.448;2023-07-16T04:42:15;17.23;;;4.22;;
81801;SDS011;71199;52.490;5.448;2023-07-16T04:44:41;11.82;;;4.88;;
81801;SDS011;71199;52.490;5.448;2023-07-16T04:47:07;10.63;;;4.55;;
81801;SDS011;71199;52.490;5.448;2023-07-16T04:49:34;8.47;;;3.70;;
81801;SDS011;71199;52.490;5.448;2023-07-16T04:54:24;8.37;;;3.70;;
81801;SDS011;71199;52.490;5.448;2023-07-16T04:56:50;12.43;;;4.10;;
81801;SDS011;71199;52.490;5.448;2023-07-16T04:59:15;12.40;;;4.47;;
81801;SDS011;71199;52.490;5.448;2023-07-16T05:01:41;12.00;;;4.33;;
81801;SDS011;71199;52.490;5.448;2023-07-16T05:04:06;9.83;;;4.00;;
81801;SDS011;71199;52.490;5.448;2023-07-16T05:06:32;10.40;;;4.57;;
81801;SDS011;71199;52.490;5.448;2023-07-16T05:08:58;11.00;;;4.47;;
81801;SDS011;71199;52.490;5.448;2023-07-16T05:11:23;8.03;;;3.93;;
81801;SDS011;71199;52.490;5.448;2023-07-16T05:13:50;12.65;;;4.28;;
81801;SDS011;71199;52.490;5.448;2023-07-16T05:16:16;13.17;;;4.43;;
81801;SDS011;71199;52.490;5.448;2023-07-16T05:18:41;10.20;;;4.33;;
81801;SDS011;71199;52.490;5.448;2023-07-16T05:21:06;10.27;;;3.88;;
81801;SDS011;71199;52.490;5.448;2023-07-16T05:23:32;9.30;;;4.87;;
81801;SDS011;71199;52.490;5.448;2023-07-16T05:25:57;12.13;;;4.23;;
81801;SDS011;71199;52.490;5.448;2023-07-16T05:28:22;10.23;;;4.47;;
81801;SDS011;71199;52.490;5.448;2023-07-16T05:30:56;11.55;;;4.22;;
81801;SDS011;71199;52.490;5.448;2023-07-16T05:33:23;13.93;;;5.00;;
81801;SDS011;71199;52.490;5.448;2023-07-16T05:35:48;15.50;;;5.47;;
81801;SDS011;71199;52.490;5.448;2023-07-16T05:38:15;11.85;;;4.47;;
81801;SDS011;71199;52.490;5.448;2023-07-16T05:40:40;10.03;;;3.87;;
81801;SDS011;71199;52.490;5.448;2023-07-16T05:43:06;11.50;;;4.33;;
81801;SDS011;71199;52.490;5.448;2023-07-16T05:45:31;11.90;;;5.78;;
81801;SDS011;71199;52.490;5.448;2023-07-16T05:47:56;10.20;;;4.80;;
81801;SDS011;71199;52.490;5.448;2023-07-16T05:50:22;14.47;;;4.50;;
81801;SDS011;71199;52.490;5.448;2023-07-16T05:52:47;9.65;;;4.18;;
81801;SDS011;71199;52.490;5.448;2023-07-16T05:55:13;14.25;;;4.63;;
81801;SDS011;71199;52.490;5.448;2023-07-16T05:57:39;10.65;;;4.95;;
81801;SDS011;71199;52.490;5.448;2023-07-16T06:00:04;10.05;;;4.40;;
81801;SDS011;71199;52.490;5.448;2023-07-16T06:02:30;9.45;;;4.53;;
81801;SDS011;71199;52.490;5.448;2023-07-16T06:04:56;10.90;;;4.80;;
81801;SDS011;71199;52.490;5.448;2023-07-16T06:07:21;15.33;;;5.00;;
81801;SDS011;71199;52.490;5.448;2023-07-16T06:09:46;12.73;;;4.20;;
81801;SDS011;71199;52.490;5.448;2023-07-16T06:12:12;8.35;;;4.22;;
81801;SDS011;71199;52.490;5.448;2023-07-16T06:14:37;9.52;;;4.22;;
81801;SDS011;71199;52.490;5.448;2023-07-16T06:17:03;9.87;;;4.10;;
81801;SDS011;71199;52.490;5.448;2023-07-16T06:19:28;9.73;;;4.32;;
81801;SDS011;71199;52.490;5.448;2023-07-16T06:21:53;9.13;;;3.90;;
81801;SDS011;71199;52.490;5.448;2023-07-16T06:24:19;12.37;;;4.50;;
81801;SDS011;71199;52.490;5.448;2023-07-16T06:26:44;8.48;;;4.07;;
81801;SDS011;71199;52.490;5.448;2023-07-16T06:29:09;11.98;;;4.40;;
81801;SDS011;71199;52.490;5.448;2023-07-16T06:31:35;9.70;;;4.53;;
81801;SDS011;71199;52.490;5.448;2023-07-16T06:34:01;9.20;;;4.20;;
81801;SDS011;71199;52.490;5.448;2023-07-16T06:36:26;7.35;;;3.83;;
81801;SDS011;71199;52.490;5.448;2023-07-16T06:38:51;11.03;;;4.37;;
81801;SDS011;71199;52.490;5.448;2023-07-16T06:41:17;9.70;;;4.68;;
81801;SDS011;71199;52.490;5.448;2023-07-16T06:43:43;8.82;;;4.40;;
81801;SDS011;71199;52.490;5.448;2023-07-16T06:46:08;8.70;;;4.10;;
81801;SDS011;71199;52.490;5.448;2023-07-16T06:48:34;9.18;;;4.07;;
81801;SDS011;71199;52.490;5.448;2023-07-16T06:50:59;9.23;;;4.18;;
81801;SDS011;71199;52.490;5.448;2023-07-16T06:53:25;10.18;;;4.68;;
81801;SDS011;71199;52.490;5.448;2023-07-16T06:55:50;14.00;;;4.43;;
81801;SDS011;71199;52.490;5.448;2023-07-16T06:58:16;9.77;;;4.82;;
81801;SDS011;71199;52.490;5.448;2023-07-16T07:00:41;9.18;;;4.38;;
81801;SDS011;71199;52.490;5.448;2023-07-16T07:03:07;12.18;;;4.15;;
81801;SDS011;71199;52.490;5.448;2023-07-16T07:05:32;8.33;;;4.20;;
81801;SDS011;71199;52.490;5.448;2023-07-16T07:07:57;8.10;;;4.38;;
81801;SDS011;71199;52.490;5.448;2023-07-16T07:10:23;11.90;;;4.28;;
81801;SDS011;71199;52.490;5.448;2023-07-16T07:12:48;12.47;;;5.23;;
81801;SDS011;71199;52.490;5.448;2023-07-16T07:15:13;10.40;;;4.70;;
81801;SDS011;71199;52.490;5.448;2023-07-16T07:17:39;10.65;;;4.50;;
81801;SDS011;71199;52.490;5.448;2023-07-16T07:20:07;10.77;;;4.57;;
81801;SDS011;71199;52.490;5.448;2023-07-16T07:22:33;9.00;;;4.43;;
81801;SDS011;71199;52.490;5.448;2023-07-16T07:24:58;9.48;;;4.90;;
81801;SDS011;71199;52.490;5.448;2023-07-16T07:27:24;13.37;;;5.20;;
81801;SDS011;71199;52.490;5.448;2023-07-16T07:29:49;12.05;;;4.93;;
81801;SDS011;71199;52.490;5.448;2023-07-16T07:32:18;14.85;;;4.82;;
81801;SDS011;71199;52.490;5.448;2023-07-16T07:34:44;10.00;;;4.22;;
81801;SDS011;71199;52.490;5.448;2023-07-16T07:37:10;8.05;;;4.63;;
81801;SDS011;71199;52.490;5.448;2023-07-16T07:39:35;11.40;;;4.70;;
81801;SDS011;71199;52.490;5.448;2023-07-16T07:42:00;10.20;;;4.57;;
81801;SDS011;71199;52.490;5.448;2023-07-16T07:44:26;7.10;;;4.10;;
81801;SDS011;71199;52.490;5.448;2023-07-16T07:46:51;11.10;;;4.68;;
81801;SDS011;71199;52.490;5.448;2023-07-16T07:49:16;9.13;;;4.20;;
81801;SDS011;71199;52.490;5.448;2023-07-16T07:51:42;11.60;;;4.73;;
81801;SDS011;71199;52.490;5.448;2023-07-16T07:54:07;10.20;;;4.45;;
81801;SDS011;71199;52.490;5.448;2023-07-16T07:56:32;10.53;;;4.03;;
81801;SDS011;71199;52.490;5.448;2023-07-16T07:58:58;9.30;;;4.40;;
81801;SDS011;71199;52.490;5.448;2023-07-16T08:01:23;9.87;;;4.57;;
81801;SDS011;71199;52.490;5.448;2023-07-16T08:03:48;14.57;;;4.77;;
81801;SDS011;71199;52.490;5.448;2023-07-16T08:06:14;10.50;;;4.47;;
81801;SDS011;71199;52.490;5.448;2023-07-16T08:08:40;9.90;;;4.35;;
81801;SDS011;71199;52.490;5.448;2023-07-16T08:11:06;8.50;;;4.75;;
81801;SDS011;71199;52.490;5.448;2023-07-16T08:13:31;9.33;;;4.27;;
81801;SDS011;71199;52.490;5.448;2023-07-16T08:15:57;11.75;;;4.40;;
81801;SDS011;71199;52.490;5.448;2023-07-16T08:18:22;9.18;;;4.65;;
81801;SDS011;71199;52.490;5.448;2023-07-16T08:20:47;10.87;;;5.10;;
81801;SDS011;71199;52.490;5.448;2023-07-16T08:23:13;14.30;;;4.65;;
81801;SDS011;71199;52.490;5.448;2023-07-16T08:25:38;10.35;;;4.30;;
81801;SDS011;71199;52.490;5.448;2023-07-16T08:28:04;8.43;;;4.13;;
81801;SDS011;71199;52.490;5.448;2023-07-16T08:30:30;9.20;;;4.60;;
81801;SDS011;71199;52.490;5.448;2023-07-16T08:32:57;16.25;;;5.53;;
81801;SDS011;71199;52.490;5.448;2023-07-16T08:35:22;11.53;;;4.97;;
81801;SDS011;71199;52.490;5.448;2023-07-16T08:37:48;14.75;;;6.35;;
81801;SDS011;71199;52.490;5.448;2023-07-16T08:40:13;14.45;;;5.10;;
81801;SDS011;71199;52.490;5.448;2023-07-16T08:42:39;12.27;;;4.45;;
81801;SDS011;71199;52.490;5.448;2023-07-16T08:45:11;11.68;;;5.10;;
81801;SDS011;71199;52.490;5.448;2023-07-16T08:47:37;11.55;;;4.95;;
81801;SDS011;71199;52.490;5.448;2023-07-16T08:50:03;15.05;;;5.28;;
81801;SDS011;71199;52.490;5.448;2023-07-16T08:52:28;9.73;;;5.25;;
81801;SDS011;71199;52.490;5.448;2023-07-16T08:54:54;12.18;;;5.43;;
81801;SDS011;71199;52.490;5.448;2023-07-16T08:57:20;11.23;;;5.20;;
81801;SDS011;71199;52.490;5.448;2023-07-16T08:59:49;9.85;;;5.35;;
81801;SDS011;71199;52.490;5.448;2023-07-16T09:02:19;14.55;;;5.03;;
81801;SDS011;71199;52.490;5.448;2023-07-16T09:04:48;9.32;;;4.70;;
81801;SDS011;71199;52.490;5.448;2023-07-16T09:07:16;11.18;;;4.93;;
81801;SDS011;71199;52.490;5.448;2023-07-16T09:09:41;11.07;;;4.90;;
81801;SDS011;71199;52.490;5.448;2023-07-16T09:12:10;19.60;;;5.82;;
81801;SDS011;71199;52.490;5.448;2023-07-16T09:14:37;11.90;;;4.82;;
81801;SDS011;71199;52.490;5.448;2023-07-16T09:17:02;17.67;;;5.70;;
81801;SDS011;71199;52.490;5.448;2023-07-16T09:19:31;9.75;;;4.90;;
81801;SDS011;71199;52.490;5.448;2023-07-16T09:21:57;14.13;;;4.82;;
81801;SDS011;71199;52.490;5.448;2023-07-16T09:24:22;11.10;;;5.28;;
81801;SDS011;71199;52.490;5.448;2023-07-16T09:26:52;8.27;;;4.50;;
81801;SDS011;71199;52.490;5.448;2023-07-16T09:29:18;10.07;;;5.22;;
81801;SDS011;71199;52.490;5.448;2023-07-16T09:31:59;11.27;;;5.05;;
81801;SDS011;71199;52.490;5.448;2023-07-16T09:34:27;12.32;;;4.65;;
81801;SDS011;71199;52.490;5.448;2023-07-16T09:36:54;11.95;;;4.57;;
81801;SDS011;71199;52.490;5.448;2023-07-16T09:39:19;10.25;;;3.92;;
81801;SDS011;71199;52.490;5.448;2023-07-16T09:41:48;10.93;;;4.80;;
81801;SDS011;71199;52.490;5.448;2023-07-16T09:44:18;14.52;;;4.22;;
81801;SDS011;71199;52.490;5.448;2023-07-16T09:46:44;11.55;;;4.40;;
81801;SDS011;71199;52.490;5.448;2023-07-16T09:51:37;12.88;;;4.50;;
81801;SDS011;71199;52.490;5.448;2023-07-16T09:54:03;11.90;;;4.40;;
81801;SDS011;71199;52.490;5.448;2023-07-16T09:56:35;11.43;;;5.22;;
81801;SDS011;71199;52.490;5.448;2023-07-16T09:59:05;10.90;;;4.72;;
81801;SDS011;71199;52.490;5.448;2023-07-16T10:01:35;13.93;;;5.13;;
81801;SDS011;71199;52.490;5.448;2023-07-16T10:04:16;10.07;;;4.70;;
81801;SDS011;71199;52.490;5.448;2023-07-16T10:09:31;9.27;;;4.50;;
81801;SDS011;71199;52.490;5.448;2023-07-16T10:14:48;12.60;;;5.13;;
81801;SDS011;71199;52.490;5.448;2023-07-16T10:22:13;12.63;;;5.57;;
81801;SDS011;71199;52.490;5.448;2023-07-16T10:24:39;11.90;;;5.20;;
81801;SDS011;71199;52.490;5.448;2023-07-16T10:27:04;11.88;;;4.70;;
81801;SDS011;71199;52.490;5.448;2023-07-16T10:29:30;10.68;;;4.57;;
81801;SDS011;71199;52.490;5.448;2023-07-16T10:31:56;13.07;;;4.22;;
81801;SDS011;71199;52.490;5.448;2023-07-16T10:34:23;12.15;;;5.00;;
81801;SDS011;71199;52.490;5.448;2023-07-16T10:36:50;12.02;;;4.45;;
81801;SDS011;71199;52.490;5.448;2023-07-16T10:39:15;11.05;;;5.90;;
81801;SDS011;71199;52.490;5.448;2023-07-16T10:41:41;12.75;;;4.47;;
81801;SDS011;71199;52.490;5.448;2023-07-16T10:44:10;11.43;;;5.22;;
81801;SDS011;71199;52.490;5.448;2023-07-16T10:46:41;10.32;;;4.63;;
81801;SDS011;71199;52.490;5.448;2023-07-16T10:49:07;11.88;;;4.50;;
81801;SDS011;71199;52.490;5.448;2023-07-16T10:51:33;9.25;;;4.88;;
81801;SDS011;71199;52.490;5.448;2023-07-16T10:53:58;12.23;;;4.78;;
81801;SDS011;71199;52.490;5.448;2023-07-16T10:56:24;11.38;;;4.43;;
81801;SDS011;71199;52.490;5.448;2023-07-16T10:58:50;10.20;;;4.53;;
81801;SDS011;71199;52.490;5.448;2023-07-16T11:01:16;11.35;;;4.88;;
81801;SDS011;71199;52.490;5.448;2023-07-16T11:03:42;7.47;;;3.63;;
81801;SDS011;71199;52.490;5.448;2023-07-16T11:06:10;10.37;;;3.90;;
81801;SDS011;71199;52.490;5.448;2023-07-16T11:08:36;7.97;;;3.78;;
81801;SDS011;71199;52.490;5.448;2023-07-16T11:11:02;10.68;;;3.97;;
81801;SDS011;71199;52.490;5.448;2023-07-16T11:13:28;9.95;;;4.13;;
81801;SDS011;71199;52.490;5.448;2023-07-16T11:15:54;11.43;;;4.40;;
81801;SDS011;71199;52.490;5.448;2023-07-16T11:18:23;9.13;;;4.00;;
81801;SDS011;71199;52.490;5.448;2023-07-16T11:20:52;9.75;;;4.20;;
81801;SDS011;71199;52.490;5.448;2023-07-16T11:23:18;10.80;;;4.63;;
81801;SDS011;71199;52.490;5.448;2023-07-16T11:25:49;8.70;;;4.35;;
81801;SDS011;71199;52.490;5.448;2023-07-16T11:28:15;8.63;;;3.97;;
81801;SDS011;71199;52.490;5.448;2023-07-16T11:30:40;11.77;;;4.05;;
81801;SDS011;71199;52.490;5.448;2023-07-16T11:33:12;9.77;;;4.10;;
81801;SDS011;71199;52.490;5.448;2023-07-16T11:35:38;10.88;;;4.70;;
81801;SDS011;71199;52.490;5.448;2023-07-16T11:38:06;13.10;;;4.30;;
81801;SDS011;71199;52.490;5.448;2023-07-16T11:40:33;6.50;;;4.07;;
81801;SDS011;71199;52.490;5.448;2023-07-16T11:43:10;11.32;;;4.13;;
81801;SDS011;71199;52.490;5.448;2023-07-16T11:45:36;12.77;;;4.45;;
81801;SDS011;71199;52.490;5.448;2023-07-16T11:48:02;10.20;;;4.35;;
81801;SDS011;71199;52.490;5.448;2023-07-16T11:50:29;9.40;;;3.90;;
81801;SDS011;71199;52.490;5.448;2023-07-16T11:52:55;11.00;;;3.72;;
81801;SDS011;71199;52.490;5.448;2023-07-16T11:55:25;11.23;;;3.72;;
81801;SDS011;71199;52.490;5.448;2023-07-16T11:57:50;6.50;;;3.72;;
81801;SDS011;71199;52.490;5.448;2023-07-16T12:00:16;9.85;;;4.18;;
81801;SDS011;71199;52.490;5.448;2023-07-16T12:02:42;9.77;;;3.65;;
81801;SDS011;71199;52.490;5.448;2023-07-16T12:05:08;12.57;;;4.00;;
81801;SDS011;71199;52.490;5.448;2023-07-16T12:07:35;6.75;;;3.65;;
81801;SDS011;71199;52.490;5.448;2023-07-16T12:10:02;8.07;;;3.70;;
81801;SDS011;71199;52.490;5.448;2023-07-16T12:12:30;5.43;;;3.15;;
81801;SDS011;71199;52.490;5.448;2023-07-16T12:14:55;8.93;;;3.47;;
81801;SDS011;71199;52.490;5.448;2023-07-16T12:17:21;7.25;;;3.75;;
81801;SDS011;71199;52.490;5.448;2023-07-16T12:19:46;9.70;;;3.53;;
81801;SDS011;71199;52.490;5.448;2023-07-16T12:22:12;8.47;;;3.10;;
81801;SDS011;71199;52.490;5.448;2023-07-16T12:24:38;7.68;;;3.00;;
81801;SDS011;71199;52.490;5.448;2023-07-16T12:27:04;7.25;;;2.90;;
81801;SDS011;71199;52.490;5.448;2023-07-16T12:29:29;9.73;;;3.25;;
81801;SDS011;71199;52.490;5.448;2023-07-16T12:31:55;6.80;;;2.70;;
81801;SDS011;71199;52.490;5.448;2023-07-16T12:34:20;9.53;;;3.03;;
81801;SDS011;71199;52.490;5.448;2023-07-16T12:36:46;10.05;;;3.30;;
81801;SDS011;71199;52.490;5.448;2023-07-16T12:39:11;8.50;;;2.90;;
81801;SDS011;71199;52.490;5.448;2023-07-16T12:41:36;6.33;;;2.70;;
81801;SDS011;71199;52.490;5.448;2023-07-16T12:44:02;8.85;;;3.17;;
81801;SDS011;71199;52.490;5.448;2023-07-16T12:46:27;7.40;;;2.50;;
81801;SDS011;71199;52.490;5.448;2023-07-16T12:48:52;8.20;;;2.28;;
81801;SDS011;71199;52.490;5.448;2023-07-16T12:51:18;8.40;;;2.88;;
81801;SDS011;71199;52.490;5.448;2023-07-16T12:53:43;11.40;;;2.83;;
81801;SDS011;71199;52.490;5.448;2023-07-16T12:56:09;6.28;;;2.42;;
81801;SDS011;71199;52.490;5.448;2023-07-16T12:58:34;6.40;;;2.60;;
81801;SDS011;71199;52.490;5.448;2023-07-16T13:01:00;6.88;;;2.10;;
81801;SDS011;71199;52.490;5.448;2023-07-16T13:03:25;7.75;;;2.22;;
81801;SDS011;71199;52.490;5.448;2023-07-16T13:05:50;8.00;;;2.20;;
81801;SDS011;71199;52.490;5.448;2023-07-16T13:08:16;9.38;;;2.83;;
81801;SDS011;71199;52.490;5.448;2023-07-16T13:10:41;7.17;;;2.27;;
81801;SDS011;71199;52.490;5.448;2023-07-16T13:13:07;8.35;;;2.58;;
81801;SDS011;71199;52.490;5.448;2023-07-16T13:15:33;6.07;;;2.53;;
81801;SDS011;71199;52.490;5.448;2023-07-16T13:17:59;7.10;;;2.20;;
81801;SDS011;71199;52.490;5.448;2023-07-16T13:20:24;5.80;;;2.33;;
81801;SDS011;71199;52.490;5.448;2023-07-16T13:22:50;5.50;;;1.80;;
81801;SDS011;71199;52.490;5.448;2023-07-16T13:25:15;7.38;;;2.47;;
81801;SDS011;71199;52.490;5.448;2023-07-16T13:27:41;5.95;;;2.47;;
81801;SDS011;71199;52.490;5.448;2023-07-16T13:30:07;10.55;;;2.42;;
81801;SDS011;71199;52.490;5.448;2023-07-16T13:32:32;13.23;;;3.13;;
81801;SDS011;71199;52.490;5.448;2023-07-16T13:34:58;9.48;;;2.58;;
81801;SDS011;71199;52.490;5.448;2023-07-16T13:37:23;7.55;;;1.98;;
81801;SDS011;71199;52.490;5.448;2023-07-16T13:39:49;7.68;;;2.88;;
81801;SDS011;71199;52.490;5.448;2023-07-16T13:42:14;12.90;;;2.40;;
81801;SDS011;71199;52.490;5.448;2023-07-16T13:44:40;9.27;;;2.25;;
81801;SDS011;71199;52.490;5.448;2023-07-16T13:47:05;7.50;;;2.22;;
81801;SDS011;71199;52.490;5.448;2023-07-16T13:49:30;9.23;;;2.13;;
81801;SDS011;71199;52.490;5.448;2023-07-16T13:51:56;13.93;;;2.55;;
81801;SDS011;71199;52.490;5.448;2023-07-16T13:54:21;11.13;;;2.10;;
81801;SDS011;71199;52.490;5.448;2023-07-16T13:56:47;10.18;;;2.60;;
81801;SDS011;71199;52.490;5.448;2023-07-16T13:59:13;9.32;;;2.58;;
81801;SDS011;71199;52.490;5.448;2023-07-16T14:01:39;10.75;;;3.13;;
81801;SDS011;71199;52.490;5.448;2023-07-16T14:04:05;10.05;;;2.60;;
81801;SDS011;71199;52.490;5.448;2023-07-16T14:06:31;8.60;;;2.47;;
81801;SDS011;71199;52.490;5.448;2023-07-16T14:08:56;9.35;;;2.30;;
81801;SDS011;71199;52.490;5.448;2023-07-16T14:11:22;16.52;;;2.78;;
81801;SDS011;71199;52.490;5.448;2023-07-16T14:13:47;10.57;;;2.33;;
81801;SDS011;71199;52.490;5.448;2023-07-16T14:16:16;10.75;;;2.35;;
81801;SDS011;71199;52.490;5.448;2023-07-16T14:18:44;8.30;;;2.70;;
81801;SDS011;71199;52.490;5.448;2023-07-16T14:21:10;8.80;;;2.22;;
81801;SDS011;71199;52.490;5.448;2023-07-16T14:23:36;8.32;;;2.28;;
81801;SDS011;71199;52.490;5.448;2023-07-16T14:26:01;6.93;;;2.00;;
81801;SDS011;71199;52.490;5.448;2023-07-16T14:28:27;9.60;;;2.70;;
81801;SDS011;71199;52.490;5.448;2023-07-16T14:30:53;6.72;;;2.35;;
81801;SDS011;71199;52.490;5.448;2023-07-16T14:33:18;10.20;;;2.63;;
81801;SDS011;71199;52.490;5.448;2023-07-16T14:35:44;67.97;;;11.53;;
81801;SDS011;71199;52.490;5.448;2023-07-16T14:38:09;51.40;;;8.57;;
81801;SDS011;71199;52.490;5.448;2023-07-16T14:40:35;11.85;;;2.28;;
81801;SDS011;71199;52.490;5.448;2023-07-16T14:43:00;10.90;;;3.10;;
81801;SDS011;71199;52.490;5.448;2023-07-16T14:45:25;9.82;;;2.53;;
81801;SDS011;71199;52.490;5.448;2023-07-16T14:47:52;10.45;;;2.80;;
81801;SDS011;71199;52.490;5.448;2023-07-16T14:50:17;9.93;;;2.77;;
81801;SDS011;71199;52.490;5.448;2023-07-16T14:52:43;8.90;;;2.67;;
81801;SDS011;71199;52.490;5.448;2023-07-16T14:55:08;8.97;;;2.40;;
81801;SDS011;71199;52.490;5.448;2023-07-16T14:57:33;9.40;;;2.90;;
81801;SDS011;71199;52.490;5.448;2023-07-16T14:59:59;9.98;;;2.58;;
81801;SDS011;71199;52.490;5.448;2023-07-16T15:02:25;9.98;;;2.60;;